Terminal Aerodrome Forecast
Issued by NWS

Home | Current Version | Previous Version | Text Only | Print | Product List | Glossary On
Versions: 1 2 3 4 5 6 7 8 9 10 11 12 13 14 15 16 17 18
000
FTUS45 KPSR 201958 AAB
TAFIPL
TAF AMD
KIPL 201958Z 2020/2118 26020G30KT P6SM SKC
     FM210300 27014KT P6SM SKC=

USA.gov is the U.S. government's official web portal to all federal, state and local government web resources and services.